Time;durP1;ratioP1;P1;durP2;ratioP2;P2;SDS_P1;SDS_P2;PMS_P1;PMS_P2;Temp;Humidity;BMP_temperature;BMP_pressure;BME280_temperature;BME280_humidity;BME280_pressure;Samples;Min_cycle;Max_cycle;Signal;HPM_P1;HPM_P2
2021/09/23 00:01:03;;;;;;;2.45;0.70;;;;;;;8.11;79.23;99438.48;1778010;78;20863;-51
2021/09/23 00:05:56;;;;;;;0.70;0.60;;;;;;;8.10;79.09;99438.06;1783893;78;20914;-52
2021/09/23 00:08:24;;;;;;;0.70;0.62;;;;;;;8.09;79.04;99439.47;1781452;79;20902;-52
2021/09/23 00:10:51;;;;;;;0.80;0.70;;;;;;;8.09;79.03;99436.79;1782328;79;20938;-52
2021/09/23 00:13:18;;;;;;;1.40;0.70;;;;;;;8.08;79.00;99437.75;1811127;77;21741;-52
2021/09/23 00:15:44;;;;;;;0.80;0.60;;;;;;;8.07;79.07;99439.56;1784363;78;20907;-52
2021/09/23 00:18:15;;;;;;;0.88;0.70;;;;;;;8.09;79.11;99440.81;1787391;78;20899;-51
2021/09/23 00:20:47;;;;;;;0.70;0.60;;;;;;;8.10;79.12;99433.17;1791297;78;20918;-52
2021/09/23 00:23:14;;;;;;;0.88;0.70;;;;;;;8.11;79.11;99434.92;1789564;78;20957;-52
2021/09/23 00:25:40;;;;;;;7.90;0.72;;;;;;;8.13;79.19;99439.76;1793135;78;22124;-51
2021/09/23 00:28:08;;;;;;;4.40;0.70;;;;;;;8.12;79.17;99438.01;1787967;78;21048;-52
2021/09/23 00:30:36;;;;;;;0.93;0.70;;;;;;;8.11;79.17;99440.28;1790260;78;21052;-52
2021/09/23 00:33:03;;;;;;;1.12;0.57;;;;;;;8.10;79.16;99435.86;1786452;78;21033;-51
2021/09/23 00:35:29;;;;;;;1.25;0.65;;;;;;;8.09;79.16;99436.32;1784024;78;21083;-51
2021/09/23 00:37:58;;;;;;;0.80;0.70;;;;;;;8.09;79.12;99436.79;1779816;79;21503;-52
2021/09/23 00:40:25;;;;;;;0.80;0.70;;;;;;;8.09;79.12;99429.62;1786416;78;20926;-51
2021/09/23 00:42:52;;;;;;;0.82;0.62;;;;;;;8.09;79.12;99430.09;1785203;78;21033;-50
2021/09/23 00:45:20;;;;;;;0.93;0.60;;;;;;;8.07;79.12;99435.54;1784518;78;21075;-51
2021/09/23 00:47:48;;;;;;;2.45;0.60;;;;;;;8.07;79.25;99432.86;1782654;78;21278;-52
2021/09/23 00:50:16;;;;;;;0.90;0.80;;;;;;;8.09;79.30;99432.30;1782112;79;21001;-51
2021/09/23 00:52:42;;;;;;;1.12;0.70;;;;;;;8.11;79.34;99430.90;1781511;78;21663;-51
2021/09/23 00:55:10;;;;;;;1.10;0.90;;;;;;;8.13;79.25;99433.92;1779325;78;21424;-51
2021/09/23 00:57:38;;;;;;;1.12;0.70;;;;;;;8.14;79.19;99441.03;1786133;78;21450;-51
2021/09/23 01:00:10;;;;;;;2.67;0.80;;;;;;;8.12;79.18;99437.54;1786631;79;20894;-51
2021/09/23 01:02:40;;;;;;;7.42;0.80;;;;;;;8.12;79.15;99433.52;1780609;78;20942;-52
2021/09/23 01:05:09;;;;;;;4.95;0.72;;;;;;;8.11;79.13;99436.27;1782120;78;21430;-51
2021/09/23 01:07:47;;;;;;;0.98;0.70;;;;;;;8.09;79.22;99432.30;1755293;78;20942;-51
2021/09/23 01:10:17;;;;;;;1.62;0.75;;;;;;;8.10;79.23;99438.06;1748167;79;21095;-50
2021/09/23 01:12:47;;;;;;;1.85;0.90;;;;;;;8.11;79.30;99440.28;1772918;78;20977;-51
2021/09/23 01:15:15;;;;;;;0.80;0.70;;;;;;;8.11;79.27;99437.14;1783599;78;21140;-51
2021/09/23 01:17:42;;;;;;;2.40;0.85;;;;;;;8.11;79.25;99436.27;1786474;79;21284;-51
2021/09/23 01:20:10;;;;;;;1.25;0.85;;;;;;;8.11;79.30;99434.92;1785018;78;20989;-52
2021/09/23 01:22:39;;;;;;;0.98;0.88;;;;;;;8.12;79.26;99440.22;1781691;78;21142;-51
2021/09/23 01:25:15;;;;;;;1.27;0.90;;;;;;;8.10;79.23;99438.06;1798308;77;21382;-51
2021/09/23 01:27:42;;;;;;;3.60;0.80;;;;;;;8.07;79.24;99440.91;1774225;78;22279;-50
2021/09/23 01:30:11;;;;;;;2.02;0.85;;;;;;;8.05;79.26;99440.09;1772453;80;21043;-51
2021/09/23 01:32:41;;;;;;;2.27;0.70;;;;;;;8.04;79.30;99434.32;1775079;78;21068;-51
2021/09/23 01:35:09;;;;;;;5.47;0.90;;;;;;;8.04;79.32;99435.66;1808467;77;21449;-51
2021/09/23 01:37:36;;;;;;;1.27;0.75;;;;;;;8.02;79.40;99430.83;1754819;79;21357;-51
2021/09/23 01:40:07;;;;;;;1.02;0.80;;;;;;;8.05;79.47;99436.53;1774870;79;22699;-51
2021/09/23 01:42:34;;;;;;;0.72;0.68;;;;;;;8.05;79.45;99434.73;1778922;79;21127;-51
2021/09/23 01:45:01;;;;;;;0.95;0.78;;;;;;;8.06;79.53;99433.80;1776326;78;21104;-52
2021/09/23 01:47:30;;;;;;;1.35;0.80;;;;;;;8.08;79.53;99436.41;1750604;79;21100;-51
2021/09/23 01:49:57;;;;;;;0.82;0.75;;;;;;;8.10;79.49;99439.88;1777779;79;21048;-51
2021/09/23 01:52:24;;;;;;;1.65;0.90;;;;;;;8.09;79.46;99434.98;1776133;79;21801;-51
2021/09/23 01:55:09;;;;;;;2.55;0.90;;;;;;;8.05;79.45;99434.73;1781602;79;21438;-52
2021/09/23 01:57:36;;;;;;;1.12;0.78;;;;;;;8.03;79.49;99434.38;1777149;79;21014;-51
2021/09/23 02:00:03;;;;;;;1.57;0.70;;;;;;;8.01;79.53;99437.13;1777347;78;21072;-51
2021/09/23 02:02:31;;;;;;;1.35;1.00;;;;;;;8.02;79.53;99438.87;1782627;79;21270;-52
2021/09/23 02:04:58;;;;;;;2.55;0.60;;;;;;;8.03;79.50;99434.38;1780133;78;21393;-51
2021/09/23 02:07:24;;;;;;;1.40;0.75;;;;;;;8.03;79.51;99439.74;1778684;78;22359;-52
2021/09/23 02:09:54;;;;;;;0.90;0.70;;;;;;;8.03;79.54;99439.74;1809373;77;21025;-51
2021/09/23 02:12:22;;;;;;;0.95;0.72;;;;;;;8.05;79.58;99436.53;1807472;77;21049;-51
2021/09/23 02:14:50;;;;;;;2.40;1.07;;;;;;;8.05;79.57;99436.06;1750296;80;21041;-51
2021/09/23 02:17:18;;;;;;;1.52;0.90;;;;;;;8.06;79.58;99433.80;1778164;78;21060;-52
2021/09/23 02:19:46;;;;;;;2.85;0.70;;;;;;;8.06;79.46;99440.50;1784677;78;21458;-51
2021/09/23 02:22:14;;;;;;;0.93;0.78;;;;;;;8.02;79.53;99440.20;1784811;78;21446;-52
2021/09/23 02:24:42;;;;;;;2.65;0.70;;;;;;;8.00;79.40;99440.73;1783701;78;21091;-52
2021/09/23 02:27:09;;;;;;;0.68;0.60;;;;;;;7.99;79.51;99433.66;1790852;78;21427;-51
2021/09/23 02:29:37;;;;;;;1.22;0.60;;;;;;;8.01;79.58;99434.91;1786860;78;22644;-51
2021/09/23 02:32:05;;;;;;;0.90;0.60;;;;;;;7.99;79.53;99428.30;1791444;78;20862;-51
2021/09/23 02:34:32;;;;;;;1.35;0.80;;;;;;;7.99;79.58;99426.46;1788712;78;20965;-51
2021/09/23 02:36:58;;;;;;;4.40;0.80;;;;;;;8.01;79.68;99431.76;1788356;78;20997;-51
2021/09/23 02:39:25;;;;;;;0.85;0.80;;;;;;;8.02;79.68;99429.48;1791270;78;20951;-51
2021/09/23 02:41:52;;;;;;;1.32;1.22;;;;;;;8.03;79.60;99427.68;1813023;77;22190;-51
2021/09/23 02:44:20;;;;;;;4.75;1.02;;;;;;;8.02;79.64;99423.25;1813475;77;21732;-51
2021/09/23 02:46:46;;;;;;;1.00;0.90;;;;;;;8.02;79.60;99420.57;1816157;78;20847;-51
2021/09/23 02:49:12;;;;;;;1.00;0.80;;;;;;;8.01;79.53;99418.36;1780154;78;20965;-51
2021/09/23 02:51:40;;;;;;;2.15;0.80;;;;;;;8.01;79.46;99417.48;1779224;78;20945;-52
2021/09/23 02:54:07;;;;;;;0.70;0.57;;;;;;;7.99;79.51;99413.56;1797246;78;21059;-51
2021/09/23 02:56:34;;;;;;;0.95;0.75;;;;;;;8.00;79.55;99412.59;1792034;78;20934;-51
2021/09/23 02:59:01;;;;;;;1.00;0.80;;;;;;;8.01;79.63;99415.67;1793423;78;21088;-51
2021/09/23 03:01:28;;;;;;;1.10;1.00;;;;;;;8.01;79.60;99417.02;1790141;78;20875;-52
2021/09/23 03:03:55;;;;;;;1.25;0.90;;;;;;;8.02;79.71;99411.19;1786881;79;20953;-51
2021/09/23 03:06:22;;;;;;;1.00;0.80;;;;;;;8.03;79.68;99410.26;1767939;79;20969;-51
2021/09/23 03:08:48;;;;;;;2.25;0.93;;;;;;;8.01;79.59;99413.00;1765969;79;21461;-51
2021/09/23 03:11:15;;;;;;;1.32;0.80;;;;;;;7.99;79.58;99414.90;1779448;78;20983;-51
2021/09/23 03:13:41;;;;;;;3.20;0.82;;;;;;;7.95;79.51;99418.16;1747145;80;21125;-51
2021/09/23 03:16:10;;;;;;;1.20;0.80;;;;;;;7.95;79.56;99413.27;1770537;79;20945;-51
2021/09/23 03:18:37;;;;;;;0.90;0.80;;;;;;;7.95;79.61;99414.61;1768354;79;21059;-51
2021/09/23 03:21:04;;;;;;;0.85;0.72;;;;;;;7.96;79.60;99423.06;1763563;79;21055;-52
2021/09/23 03:23:30;;;;;;;0.95;0.80;;;;;;;7.97;79.64;99422.13;1762280;79;21155;-51
2021/09/23 03:25:57;;;;;;;1.10;0.82;;;;;;;7.97;79.66;99417.64;1765542;79;21049;-51
2021/09/23 03:28:23;;;;;;;1.15;1.00;;;;;;;7.97;79.61;99420.31;1764899;79;21064;-51
2021/09/23 03:30:49;;;;;;;1.00;0.72;;;;;;;7.97;79.58;99424.80;1761859;79;22321;-51
2021/09/23 03:33:17;;;;;;;2.40;0.90;;;;;;;7.96;79.55;99421.25;1763940;79;21042;-51
2021/09/23 03:35:43;;;;;;;0.88;0.78;;;;;;;7.95;79.56;99421.31;1765144;79;21413;-51
2021/09/23 03:38:10;;;;;;;1.90;0.90;;;;;;;7.94;79.59;99422.24;1762381;79;21048;-51
2021/09/23 03:40:39;;;;;;;5.97;0.90;;;;;;;7.94;79.63;99420.44;1762323;79;21262;-51
2021/09/23 03:43:06;;;;;;;1.30;1.07;;;;;;;7.95;79.68;99421.31;1763578;79;23277;-52
2021/09/23 03:45:34;;;;;;;1.62;0.90;;;;;;;7.96;79.67;99419.04;1765981;79;21360;-51
2021/09/23 03:48:01;;;;;;;1.92;1.07;;;;;;;7.97;79.77;99423.47;1766134;79;21127;-51
2021/09/23 03:50:29;;;;;;;1.65;1.00;;;;;;;7.98;79.76;99427.89;1736372;79;21094;-51
2021/09/23 03:52:56;;;;;;;1.75;1.07;;;;;;;7.97;79.73;99423.47;1762164;79;21004;-51
2021/09/23 03:55:23;;;;;;;2.98;1.22;;;;;;;7.95;79.73;99417.30;1760013;79;21772;-51
2021/09/23 03:57:50;;;;;;;1.15;1.00;;;;;;;7.95;79.67;99425.33;1761706;79;21421;-51
2021/09/23 04:00:21;;;;;;;3.37;0.80;;;;;;;7.92;79.60;99424.98;1767544;79;21123;-52
2021/09/23 04:02:48;;;;;;;1.20;1.10;;;;;;;7.91;79.57;99421.90;1771380;79;21443;-51
2021/09/23 04:05:14;;;;;;;1.52;0.90;;;;;;;7.91;79.59;99420.55;1774232;78;21035;-51
2021/09/23 04:07:43;;;;;;;1.20;0.80;;;;;;;7.89;79.57;99421.11;1786251;78;21479;-51
2021/09/23 04:10:11;;;;;;;2.27;1.22;;;;;;;7.89;79.70;99418.91;1784373;78;21037;-51
2021/09/23 04:12:39;;;;;;;1.05;0.95;;;;;;;7.92;79.69;99422.30;1787705;78;21045;-51
2021/09/23 04:15:06;;;;;;;1.70;1.10;;;;;;;7.95;79.74;99415.95;1785272;78;21099;-51
2021/09/23 04:17:35;;;;;;;1.40;1.10;;;;;;;7.98;79.72;99426.09;1787170;78;21095;-51
2021/09/23 04:20:02;;;;;;;3.02;1.05;;;;;;;7.99;79.63;99421.09;1780787;78;21528;-51
2021/09/23 04:22:30;;;;;;;1.15;1.05;;;;;;;8.00;79.60;99420.63;1790699;78;21456;-51
2021/09/23 04:24:57;;;;;;;1.67;1.30;;;;;;;7.98;79.57;99417.17;1765924;78;21643;-51
2021/09/23 04:27:25;;;;;;;1.00;0.90;;;;;;;7.98;79.59;99418.52;1786333;78;22192;-52
2021/09/23 04:29:52;;;;;;;1.75;1.10;;;;;;;8.00;79.55;99423.31;1758393;78;21684;-52
2021/09/23 04:32:19;;;;;;;1.00;0.90;;;;;;;7.98;79.53;99431.45;1789017;78;21491;-52
2021/09/23 04:34:46;;;;;;;1.30;0.75;;;;;;;7.98;79.60;99425.21;1787543;78;21359;-52
2021/09/23 04:37:13;;;;;;;1.10;0.80;;;;;;;8.01;79.64;99424.19;1785408;78;21053;-52
2021/09/23 04:39:43;;;;;;;1.00;0.90;;;;;;;8.01;79.60;99430.89;1784279;78;21575;-52
2021/09/23 04:42:12;;;;;;;2.85;1.10;;;;;;;7.99;79.67;99432.32;1810906;77;21065;-52
2021/09/23 04:44:39;;;;;;;1.30;1.10;;;;;;;7.99;79.63;99430.98;1807654;77;21135;-52
2021/09/23 04:47:06;;;;;;;2.60;0.90;;;;;;;7.98;79.62;99426.55;1776326;78;21120;-52
2021/09/23 04:49:34;;;;;;;1.00;0.80;;;;;;;7.98;79.47;99427.89;1779455;78;21029;-52
2021/09/23 04:52:03;;;;;;;1.50;0.82;;;;;;;7.98;79.44;99427.89;1777848;78;21219;-52
2021/09/23 04:54:30;;;;;;;1.00;0.80;;;;;;;7.96;79.38;99427.95;1778768;78;21058;-52
2021/09/23 04:56:56;;;;;;;1.00;0.80;;;;;;;7.96;79.42;99430.63;1777053;78;21126;-52
2021/09/23 04:59:24;;;;;;;2.10;1.10;;;;;;;7.96;79.44;99434.66;1779352;78;21081;-52
2021/09/23 05:01:51;;;;;;;1.05;0.80;;;;;;;7.98;79.41;99433.25;1782690;78;21684;-51
2021/09/23 05:04:18;;;;;;;1.07;0.95;;;;;;;7.98;79.39;99430.11;1777637;79;21492;-52
2021/09/23 05:06:44;;;;;;;1.75;0.80;;;;;;;8.01;79.36;99437.13;1781028;78;22864;-52
2021/09/23 05:09:12;;;;;;;1.00;0.90;;;;;;;8.01;79.26;99433.10;1783678;79;21454;-53
2021/09/23 05:11:42;;;;;;;1.20;1.10;;;;;;;7.99;79.23;99429.64;1781562;79;21521;-51
2021/09/23 05:14:08;;;;;;;1.55;0.90;;;;;;;7.98;79.20;99432.78;1781707;79;21491;-52
2021/09/23 05:16:36;;;;;;;1.90;0.93;;;;;;;7.99;79.15;99430.98;1779587;79;21499;-51
2021/09/23 05:19:06;;;;;;;0.90;0.70;;;;;;;7.99;79.10;99425.12;1784341;78;21395;-52
2021/09/23 05:21:34;;;;;;;1.07;0.90;;;;;;;8.00;79.11;99428.67;1783529;78;21131;-52
2021/09/23 05:24:00;;;;;;;2.83;0.80;;;;;;;8.02;79.17;99423.25;1779309;79;20997;-52
2021/09/23 05:26:27;;;;;;;1.52;0.80;;;;;;;8.03;79.26;99421.85;1780297;79;22512;-51
2021/09/23 05:28:53;;;;;;;1.00;0.70;;;;;;;8.09;79.30;99422.05;1787927;78;21069;-52
2021/09/23 05:31:21;;;;;;;1.32;0.80;;;;;;;8.14;79.21;99430.78;1784457;79;21222;-52
2021/09/23 05:33:47;;;;;;;0.85;0.75;;;;;;;8.18;79.02;99436.39;1782050;78;21078;-52
2021/09/23 05:36:14;;;;;;;0.98;0.78;;;;;;;8.19;78.75;99429.63;1781373;78;21077;-52
2021/09/23 05:38:42;;;;;;;1.02;0.90;;;;;;;8.19;78.71;99430.97;1788582;79;21670;-51
2021/09/23 05:41:09;;;;;;;1.17;0.70;;;;;;;8.18;78.65;99436.39;1780466;79;21443;-51
2021/09/23 05:43:38;;;;;;;0.72;0.60;;;;;;;8.19;78.58;99432.78;1786070;78;21460;-51
2021/09/23 05:46:05;;;;;;;0.70;0.60;;;;;;;8.22;78.47;99437.55;1783175;78;21004;-51
2021/09/23 05:48:32;;;;;;;0.70;0.70;;;;;;;8.26;78.43;99434.25;1785758;79;20949;-51
2021/09/23 05:50:59;;;;;;;0.80;0.60;;;;;;;8.31;78.45;99438.99;1786870;78;20906;-51
2021/09/23 05:53:25;;;;;;;0.70;0.60;;;;;;;8.37;78.27;99442.73;1788439;78;21057;-52
2021/09/23 05:55:51;;;;;;;0.55;0.47;;;;;;;8.42;78.21;99437.19;1786925;79;20957;-51
2021/09/23 05:58:18;;;;;;;2.52;0.60;;;;;;;8.46;78.27;99432.07;1789051;78;21062;-52
2021/09/23 06:00:45;;;;;;;0.80;0.60;;;;;;;8.54;78.04;99441.98;1784503;78;20915;-52
2021/09/23 06:03:11;;;;;;;0.55;0.50;;;;;;;8.53;77.73;99439.77;1790811;78;20906;-52
2021/09/23 06:05:37;;;;;;;0.78;0.60;;;;;;;8.53;77.64;99442.45;1785391;79;22135;-51
2021/09/23 06:08:04;;;;;;;0.82;0.55;;;;;;;8.55;77.61;99442.39;1780757;79;21500;-52
2021/09/23 06:10:32;;;;;;;1.20;0.60;;;;;;;8.56;77.45;99440.98;1781205;79;20906;-52
2021/09/23 06:12:58;;;;;;;0.62;0.50;;;;;;;8.60;77.53;99449.75;1781671;78;21090;-52
2021/09/23 06:15:26;;;;;;;0.60;0.45;;;;;;;8.63;77.44;99441.11;1778416;78;21133;-51
2021/09/23 06:17:52;;;;;;;2.87;0.60;;;;;;;8.68;77.28;99444.91;1777204;79;21476;-51
2021/09/23 06:20:20;;;;;;;0.60;0.60;;;;;;;8.71;77.23;99446.99;1783100;79;21487;-51
2021/09/23 06:22:47;;;;;;;0.62;0.50;;;;;;;8.74;76.91;99448.67;1781822;78;21775;-51
2021/09/23 06:25:13;;;;;;;0.60;0.55;;;;;;;8.77;76.85;99447.64;1778917;79;21077;-51
2021/09/23 06:27:42;;;;;;;0.60;0.50;;;;;;;8.78;76.75;99446.23;1778069;79;21268;-52
2021/09/23 06:30:12;;;;;;;0.70;0.50;;;;;;;8.79;76.55;99442.61;1782505;78;20938;-51
2021/09/23 06:32:40;;;;;;;0.95;0.50;;;;;;;8.80;76.32;99448.86;1783547;79;20963;-51
2021/09/23 06:35:08;;;;;;;0.50;0.45;;;;;;;8.78;76.13;99440.00;1776105;79;21114;-51
2021/09/23 06:37:38;;;;;;;0.50;0.40;;;;;;;8.77;76.07;99444.48;1783101;78;20951;-52
2021/09/23 06:40:06;;;;;;;0.40;0.37;;;;;;;8.77;76.01;99449.86;1808128;77;21030;-51
2021/09/23 06:42:33;;;;;;;0.40;0.40;;;;;;;8.78;75.89;99444.02;1817147;78;21112;-51
2021/09/23 06:45:00;;;;;;;0.50;0.40;;;;;;;8.79;75.79;99445.77;1776010;80;21112;-51
2021/09/23 06:47:26;;;;;;;0.30;0.30;;;;;;;8.80;75.31;99448.86;1774173;79;21784;-51
2021/09/23 06:49:54;;;;;;;2.72;0.30;;;;;;;8.76;75.25;99449.95;1809104;77;21029;-51
2021/09/23 06:52:22;;;;;;;0.78;0.30;;;;;;;8.73;74.98;99445.12;1803523;78;21057;-52
2021/09/23 06:54:49;;;;;;;0.40;0.33;;;;;;;8.71;74.85;99452.83;1818306;77;20991;-51
2021/09/23 06:57:17;;;;;;;0.50;0.50;;;;;;;8.71;74.60;99446.12;1814064;78;21056;-52
2021/09/23 07:00:05;;;;;;;0.95;0.40;;;;;;;8.75;74.54;99449.55;1786119;78;21293;-51
2021/09/23 07:02:33;;;;;;;0.30;0.30;;;;;;;8.81;74.48;99443.89;1787909;78;21386;-51
2021/09/23 07:05:08;;;;;;;0.53;0.20;;;;;;;8.89;74.79;99447.09;1758663;78;20973;-51
2021/09/23 07:07:36;;;;;;;0.30;0.20;;;;;;;9.00;74.54;99442.11;1784602;78;21109;-52
2021/09/23 07:10:05;;;;;;;0.28;0.28;;;;;;;9.07;74.15;99444.43;1790551;78;21109;-51
2021/09/23 07:12:33;;;;;;;0.30;0.30;;;;;;;9.15;73.70;99445.88;1793159;78;21339;-51
2021/09/23 07:15:01;;;;;;;0.47;0.35;;;;;;;9.21;73.05;99442.42;1786886;78;21162;-51
2021/09/23 07:17:28;;;;;;;0.50;0.35;;;;;;;9.27;72.82;99437.25;1792271;78;20962;-52
2021/09/23 07:19:56;;;;;;;0.23;0.23;;;;;;;9.33;72.50;99436.48;1792720;78;20921;-52
2021/09/23 07:22:24;;;;;;;0.30;0.20;;;;;;;9.37;72.01;99435.37;1787286;78;20871;-51
2021/09/23 07:24:51;;;;;;;0.20;0.20;;;;;;;9.40;71.72;99439.73;1811672;77;21113;-51
2021/09/23 07:27:17;;;;;;;0.20;0.20;;;;;;;9.43;71.51;99432.41;1774203;79;21042;-51
2021/09/23 07:29:45;;;;;;;0.20;0.10;;;;;;;9.47;71.34;99435.33;1779660;79;21061;-51
2021/09/23 07:32:11;;;;;;;0.20;0.20;;;;;;;9.52;71.28;99436.47;1777668;79;21124;-51
2021/09/23 07:34:38;;;;;;;0.28;0.17;;;;;;;9.56;70.85;99434.01;1778725;78;21540;-51
2021/09/23 07:37:04;;;;;;;0.23;0.20;;;;;;;9.57;70.37;99435.75;1807037;77;21111;-51
2021/09/23 07:39:32;;;;;;;0.50;0.20;;;;;;;9.56;70.25;99434.01;1771374;79;21075;-51
2021/09/23 07:41:59;;;;;;;0.20;0.20;;;;;;;9.55;70.26;99434.08;1782001;79;21034;-52
2021/09/23 07:44:26;;;;;;;0.30;0.20;;;;;;;9.54;70.32;99439.92;1810562;77;21038;-51
2021/09/23 07:46:54;;;;;;;0.30;0.20;;;;;;;9.52;70.39;99438.28;1776695;79;21049;-51
2021/09/23 07:49:21;;;;;;;0.23;0.20;;;;;;;9.48;70.50;99437.07;1810123;77;21979;-51
2021/09/23 07:51:48;;;;;;;0.30;0.20;;;;;;;9.47;70.90;99435.80;1777586;78;21438;-51
2021/09/23 07:54:16;;;;;;;0.30;0.20;;;;;;;9.46;71.29;99438.08;1776699;79;22183;-52
2021/09/23 07:56:44;;;;;;;0.20;0.20;;;;;;;9.43;71.45;99440.47;1775112;79;21472;-51
2021/09/23 07:59:12;;;;;;;0.20;0.13;;;;;;;9.41;71.58;99440.13;1808987;77;22204;-51
2021/09/23 08:01:38;;;;;;;0.30;0.30;;;;;;;9.38;71.99;99438.92;1810755;77;21134;-51
2021/09/23 08:04:05;;;;;;;0.45;0.25;;;;;;;9.36;72.31;99444.37;1783087;77;21061;-52
2021/09/23 08:06:32;;;;;;;0.53;0.30;;;;;;;9.34;72.50;99438.69;1806758;77;21065;-52
2021/09/23 08:08:59;;;;;;;0.30;0.20;;;;;;;9.33;72.60;99435.61;1824986;77;21034;-52
2021/09/23 08:11:27;;;;;;;1.75;0.30;;;;;;;9.32;72.84;99428.48;1782902;78;21145;-52
2021/09/23 08:13:55;;;;;;;0.30;0.30;;;;;;;9.32;73.02;99428.02;1810004;77;21329;-52
2021/09/23 08:16:23;;;;;;;1.95;0.30;;;;;;;9.35;73.21;99427.01;1793057;78;21475;-51
2021/09/23 08:18:59;;;;;;;0.30;0.20;;;;;;;9.39;73.58;99428.59;1819074;77;21471;-52
2021/09/23 08:21:36;;;;;;;0.17;0.17;;;;;;;9.47;73.50;99430.42;1815187;77;20923;-52
2021/09/23 08:24:03;;;;;;;0.20;0.20;;;;;;;9.56;73.49;99426.42;1817793;77;20989;-52
2021/09/23 08:26:30;;;;;;;0.40;0.20;;;;;;;9.62;73.53;99419.39;1819930;77;21699;-52
2021/09/23 08:28:56;;;;;;;0.53;0.30;;;;;;;9.67;73.53;99422.27;1819320;77;20898;-52
2021/09/23 08:31:23;;;;;;;0.30;0.30;;;;;;;9.73;73.44;99421.95;1815803;77;21363;-51
2021/09/23 08:33:53;;;;;;;0.35;0.30;;;;;;;9.78;73.26;99418.55;1780969;79;21434;-51
2021/09/23 08:36:21;;;;;;;0.40;0.28;;;;;;;9.81;73.09;99426.47;1817448;77;20929;-52
2021/09/23 08:38:50;;;;;;;2.25;0.30;;;;;;;9.78;72.85;99421.23;1781516;78;22287;-51
2021/09/23 08:41:17;;;;;;;0.35;0.30;;;;;;;9.74;72.77;99424.16;1778167;78;20974;-52
2021/09/23 08:43:46;;;;;;;0.40;0.30;;;;;;;9.72;72.78;99416.17;1779744;78;20895;-52
2021/09/23 08:46:14;;;;;;;0.95;0.20;;;;;;;9.74;73.05;99418.31;1818128;77;20997;-53
2021/09/23 08:48:41;;;;;;;0.30;0.25;;;;;;;9.80;73.05;99419.34;1820266;77;21487;-52
2021/09/23 08:51:08;;;;;;;0.20;0.20;;;;;;;9.84;73.05;99420.08;1818827;77;21358;-52
2021/09/23 08:53:36;;;;;;;0.40;0.30;;;;;;;9.89;73.08;99424.73;1818837;77;21303;-52
2021/09/23 08:56:03;;;;;;;0.20;0.20;;;;;;;9.93;73.24;99418.74;1815923;78;21361;-53
2021/09/23 08:58:33;;;;;;;0.20;0.20;;;;;;;9.95;72.45;99419.54;1758762;79;21762;-51
2021/09/23 09:01:07;;;;;;;0.20;0.20;;;;;;;9.91;72.48;99418.81;1782463;78;21131;-51
2021/09/23 09:04:02;;;;;;;0.80;0.80;;;;;;;9.84;72.67;99422.30;1782448;78;22920;-52
2021/09/23 09:06:36;;;;;;;0.40;0.28;;;;;;;9.80;72.53;99422.03;1777039;77;21052;-52
2021/09/23 09:09:04;;;;;;;1.52;0.30;;;;;;;9.78;72.53;99418.55;1810393;77;20950;-52
2021/09/23 09:11:32;;;;;;;0.35;0.20;;;;;;;9.77;72.71;99427.59;1709621;78;20967;-52
2021/09/23 09:13:59;;;;;;;0.70;0.40;;;;;;;9.78;72.40;99425.27;1738160;79;21274;-53
2021/09/23 09:16:27;;;;;;;0.37;0.35;;;;;;;9.77;72.32;99419.52;1774375;79;21712;-52
2021/09/23 09:21:12;;;;;;;1.23;0.43;;;;;;;9.82;72.52;99414.77;1864705;75;22545;-52
2021/09/23 09:23:57;;;;;;;0.50;0.50;;;;;;;9.81;72.72;99416.19;1837226;77;20905;-52
2021/09/23 09:26:32;;;;;;;0.40;0.40;;;;;;;9.83;72.60;99419.67;1841798;75;21100;-53
2021/09/23 09:29:01;;;;;;;0.40;0.37;;;;;;;9.86;72.78;99415.50;1842722;77;21572;-53
2021/09/23 09:31:29;;;;;;;0.55;0.53;;;;;;;9.87;72.41;99417.20;1807231;77;20961;-52
2021/09/23 09:33:59;;;;;;;0.53;0.40;;;;;;;9.90;72.44;99414.85;1770065;79;21102;-53
2021/09/23 09:36:51;;;;;;;0.30;0.30;;;;;;;9.93;72.48;99410.20;1769172;79;20915;-53
2021/09/23 09:39:23;;;;;;;1.62;0.30;;;;;;;9.99;72.79;99412.56;1769708;80;21084;-53
2021/09/23 09:41:52;;;;;;;0.30;0.30;;;;;;;10.04;72.59;99408.28;1744607;80;20942;-53
2021/09/23 09:44:20;;;;;;;0.20;0.15;;;;;;;10.07;72.51;99413.05;1769145;80;20910;-53
2021/09/23 09:46:54;;;;;;;0.30;0.10;;;;;;;10.05;71.75;99414.06;1767468;80;21164;-53
2021/09/23 09:49:24;;;;;;;0.20;0.20;;;;;;;9.96;71.05;99418.56;1764617;79;21463;-53
2021/09/23 09:52:00;;;;;;;0.10;0.10;;;;;;;9.83;70.52;99421.89;1769774;80;21122;-53
2021/09/23 09:54:30;;;;;;;0.20;0.20;;;;;;;9.70;70.42;99419.41;1764185;79;21030;-53
2021/09/23 09:57:00;;;;;;;0.50;0.20;;;;;;;9.58;70.62;99425.41;1763863;80;21030;-53
2021/09/23 09:59:29;;;;;;;1.10;0.20;;;;;;;9.49;70.74;99420.02;1764889;80;21089;-54
2021/09/23 10:01:57;;;;;;;0.40;0.20;;;;;;;9.42;71.05;99423.08;1766297;80;21452;-52
2021/09/23 10:04:26;;;;;;;0.70;0.35;;;;;;;9.38;71.48;99419.66;1768397;79;22900;-54
2021/09/23 10:06:56;;;;;;;2.83;0.42;;;;;;;9.37;71.76;99424.63;1769813;80;20912;-54
2021/09/23 10:09:22;;;;;;;0.55;0.20;;;;;;;9.38;72.15;99425.03;1722831;80;20914;-54
2021/09/23 10:11:49;;;;;;;0.50;0.30;;;;;;;9.36;72.60;99428.25;1764518;79;21064;-54
2021/09/23 10:14:18;;;;;;;0.30;0.30;;;;;;;9.36;72.98;99424.22;1766871;80;21290;-53
2021/09/23 10:16:46;;;;;;;0.25;0.20;;;;;;;9.39;73.15;99420.05;1772991;80;21016;-53
2021/09/23 10:19:14;;;;;;;0.30;0.20;;;;;;;9.44;73.40;99424.72;1770845;80;21586;-53
2021/09/23 10:21:42;;;;;;;0.20;0.20;;;;;;;9.48;73.34;99420.08;1750752;80;21009;-53
2021/09/23 10:24:11;;;;;;;0.30;0.20;;;;;;;9.49;73.34;99421.83;1755928;80;20953;-53
2021/09/23 10:26:40;;;;;;;0.68;0.10;;;;;;;9.52;73.57;99418.12;1733570;80;20989;-53
2021/09/23 10:29:08;;;;;;;0.47;0.20;;;;;;;9.54;73.79;99421.11;1746024;80;21586;-53
2021/09/23 10:31:36;;;;;;;0.20;0.10;;;;;;;9.55;73.87;99418.83;1746713;80;21073;-54
2021/09/23 10:34:05;;;;;;;0.20;0.20;;;;;;;9.60;74.05;99418.15;1752106;80;20944;-53
2021/09/23 10:36:34;;;;;;;0.10;0.10;;;;;;;9.68;74.08;99415.95;1752180;80;20971;-53
2021/09/23 10:39:05;;;;;;;2.65;0.20;;;;;;;9.76;74.01;99415.09;1728542;80;20946;-54
2021/09/23 10:41:36;;;;;;;0.20;0.17;;;;;;;9.88;73.87;99413.11;1746193;80;21590;-53
2021/09/23 10:44:03;;;;;;;0.20;0.20;;;;;;;10.03;73.77;99408.79;1752357;80;21065;-53
2021/09/23 10:46:30;;;;;;;0.20;0.20;;;;;;;10.11;73.37;99402.54;1698839;80;21567;-53
2021/09/23 10:48:58;;;;;;;0.30;0.13;;;;;;;10.19;72.93;99398.14;1747504;80;21550;-53
2021/09/23 10:51:26;;;;;;;1.12;0.20;;;;;;;10.24;72.78;99400.97;1755334;80;21448;-53
2021/09/23 10:53:58;;;;;;;0.20;0.20;;;;;;;10.28;72.46;99396.31;1742775;80;21139;-52
2021/09/23 10:56:28;;;;;;;0.20;0.17;;;;;;;10.30;71.92;99402.93;1699312;80;21606;-53
2021/09/23 10:58:55;;;;;;;0.20;0.13;;;;;;;10.26;71.18;99398.20;1742234;80;21037;-53
2021/09/23 11:01:29;;;;;;;0.10;0.10;;;;;;;10.20;70.51;99403.91;1750067;80;21516;-52
2021/09/23 11:03:59;;;;;;;0.10;0.10;;;;;;;10.16;70.49;99410.35;1748492;80;20981;-52
2021/09/23 11:06:37;;;;;;;0.10;0.10;;;;;;;10.11;70.39;99413.30;1751001;80;21416;-53
2021/09/23 11:09:22;;;;;;;0.25;0.20;;;;;;;10.07;70.28;99418.42;1744355;80;20950;-53
2021/09/23 11:11:57;;;;;;;0.23;0.10;;;;;;;10.01;70.37;99421.44;1753142;80;20907;-53
2021/09/23 11:14:26;;;;;;;0.30;0.20;;;;;;;9.96;70.69;99419.44;1751102;80;20922;-53
2021/09/23 11:16:56;;;;;;;0.20;0.10;;;;;;;9.89;70.79;99427.42;1748712;80;21482;-53
2021/09/23 11:19:24;;;;;;;0.33;0.15;;;;;;;9.83;71.12;99424.58;1781498;78;20939;-53
2021/09/23 11:21:56;;;;;;;0.10;0.10;;;;;;;9.80;71.30;99422.03;1735473;80;20954;-53
2021/09/23 11:24:25;;;;;;;0.35;0.20;;;;;;;9.78;71.46;99423.08;1769451;80;20875;-53
2021/09/23 11:26:53;;;;;;;0.10;0.10;;;;;;;9.77;71.68;99422.20;1767787;79;21354;-53
2021/09/23 11:29:21;;;;;;;0.20;0.20;;;;;;;9.77;72.25;99422.68;1769483;80;20922;-53
2021/09/23 11:31:54;;;;;;;0.30;0.20;;;;;;;9.78;72.55;99430.64;1767793;80;21798;-54
2021/09/23 11:34:39;;;;;;;0.30;0.20;;;;;;;9.79;72.64;99424.32;1767642;79;21566;-53
2021/09/23 11:37:08;;;;;;;;;;;;;;;9.79;72.80;99422.98;1774152;80;21483;-53
2021/09/23 11:39:36;;;;;;;3.22;0.20;;;;;;;9.79;72.81;99422.10;1766543;79;20113;-53
2021/09/23 11:42:17;;;;;;;2.22;0.20;;;;;;;9.76;72.74;99427.19;1770831;80;20950;-53
2021/09/23 11:44:45;;;;;;;0.28;0.20;;;;;;;9.74;72.79;99418.31;1769323;79;21084;-53
2021/09/23 11:47:13;;;;;;;0.33;0.20;;;;;;;9.72;72.80;99416.64;1769524;80;21498;-53
2021/09/23 11:49:42;;;;;;;0.10;0.10;;;;;;;9.70;73.07;99412.69;1773492;80;20860;-53
2021/09/23 11:52:08;;;;;;;0.33;0.13;;;;;;;9.73;73.27;99407.64;1768048;79;21076;-53